KCRP

Corpus Christi International Airport

Airport
ICAO code
KCRP
IATA Code
CRP
Summary
ICAO Region
NAM
ICAO Territory
Location

Corpus Christi, Texas

Serving
Corpus Christi
Elevation
44 ft
Coordinates
27° 46' 30" N , 97° 30' 8" W
KCC
Metar
KCRP 191051Z 13005KT 8SM FEW009 FEW200 BKN250 23/22 A2990 RMK AO2 SLP123 T02280222

Description

Corpus Christi International Airport is a public use airport located 5 nm west of the central business district of Corpus Christi, in Nueces County, Texas, USA.

Airport map

Aerial View

SKYbrary Partners:

Safety knowledge contributed by: